Time;durP1;ratioP1;P1;durP2;ratioP2;P2;SDS_P1;SDS_P2;PMS_P1;PMS_P2;Temp;Humidity;BMP_temperature;BMP_pressure;BME280_temperature;BME280_humidity;BME280_pressure;Samples;Min_cycle;Max_cycle;Signal;HPM_P1;HPM_P2
2021/03/01 00:08:22;;;;;;;1.73;1.63;;;;;;;1.22;78.96;101000.91;1744364;79;21247;-93
2021/03/01 00:11:38;;;;;;;2.20;2.00;;;;;;;-0.36;78.91;100755.98;1798441;76;21157;-92
2021/03/01 00:14:54;;;;;;;1.67;1.40;;;;;;;1.26;78.97;101002.36;1774458;79;21137;-93
2021/03/01 00:17:52;;;;;;;2.63;1.87;;;;;;;1.21;79.16;101014.53;1784788;78;21185;-90
2021/03/01 00:20:55;;;;;;;0.80;0.80;;;;;;;1.16;79.06;101013.53;1792455;78;21176;-93
2021/03/01 00:24:12;;;;;;;2.40;2.20;;;;;;;1.30;78.70;100999.87;1795124;78;21192;-90
2021/03/01 00:26:43;;;;;;;1.00;1.00;;;;;;;1.29;78.61;101006.09;1777190;79;21192;-87
2021/03/01 00:29:10;;;;;;;1.73;1.63;;;;;;;1.26;78.76;100992.72;1801421;78;21184;-91
2021/03/01 00:31:43;;;;;;;1.80;1.70;;;;;;;1.23;78.58;100999.49;1781349;78;21137;-88
2021/03/01 00:34:12;;;;;;;1.50;1.40;;;;;;;1.31;78.54;101001.08;1811465;76;21103;-93
2021/03/01 00:37:03;;;;;;;3.25;2.77;;;;;;;-0.06;77.99;100759.08;1754723;80;21175;-91
2021/03/01 00:39:35;;;;;;;2.33;2.12;;;;;;;1.48;77.73;101019.55;1737975;81;21147;-92
2021/03/01 00:42:10;;;;;;;2.10;2.00;;;;;;;0.11;77.74;100826.48;1754866;80;21143;-92
2021/03/01 00:44:47;;;;;;;2.70;2.50;;;;;;;1.27;78.02;101028.52;1790132;78;21031;-89
2021/03/01 00:47:17;;;;;;;2.13;1.93;;;;;;;0.96;77.96;100963.79;1801071;78;21182;-89
2021/03/01 00:49:45;;;;;;;1.70;1.70;;;;;;;1.29;78.06;101017.42;1789141;78;21127;-90
2021/03/01 00:52:16;;;;;;;2.20;2.07;;;;;;;1.22;78.55;101020.61;1793319;78;21214;-90
2021/03/01 00:54:56;;;;;;;1.87;1.47;;;;;;;1.19;78.73;101022.99;1818221;76;23447;-91
2021/03/01 00:57:23;;;;;;;2.23;1.93;;;;;;;1.23;78.61;101043.31;1669438;81;21479;-90
2021/03/01 00:59:55;;;;;;;1.73;1.70;;;;;;;1.32;78.38;101043.48;1764271;80;21144;-90
2021/03/01 01:02:22;;;;;;;2.17;1.83;;;;;;;1.43;78.64;101061.55;1759916;80;21109;-90
2021/03/01 01:04:57;;;;;;;1.20;1.20;;;;;;;1.42;78.36;101080.91;1759469;80;21189;-89
2021/03/01 01:07:25;;;;;;;1.97;1.87;;;;;;;1.42;78.37;101080.42;1736536;81;21193;-89
2021/03/01 01:09:53;;;;;;;2.17;2.07;;;;;;;1.42;78.27;101086.16;1730879;81;21335;-90
2021/03/01 01:12:25;;;;;;;2.10;2.00;;;;;;;1.45;77.93;101110.88;1740624;80;21112;-92
2021/03/01 01:14:57;;;;;;;1.90;1.80;;;;;;;1.48;77.72;101110.19;1697744;81;21156;-94
2021/03/01 01:17:58;;;;;;;2.50;2.33;;;;;;;1.41;77.92;101109.42;1687325;81;21187;-93
2021/03/01 01:21:08;;;;;;;1.73;1.63;;;;;;;1.22;78.50;101113.36;1644062;84;21542;-94
2021/03/01 01:24:33;;;;;;;1.80;1.70;;;;;;;1.23;78.85;101124.73;1694350;81;21131;-95
2021/03/01 01:27:53;;;;;;;1.60;1.50;;;;;;;1.25;78.41;101128.91;1694453;82;21189;-94
2021/03/01 01:30:58;;;;;;;2.37;2.27;;;;;;;1.11;78.91;101138.22;1686878;80;21096;-94
2021/03/01 01:34:02;;;;;;;1.63;1.53;;;;;;;1.05;79.13;101146.53;1661254;81;21218;-91
2021/03/01 01:36:53;;;;;;;2.53;2.33;;;;;;;1.21;78.90;101146.31;1653201;84;21331;-90
2021/03/01 01:39:44;;;;;;;1.80;1.70;;;;;;;1.21;78.84;101145.84;1636614;85;21209;-90
2021/03/01 01:42:44;;;;;;;;;;;;;;;;;;;;;
2021/03/01 02:33:24;;;;;;;2.07;1.87;;;;;;;0.95;79.38;101177.84;1552806;91;21762;-88
2021/03/01 02:36:03;;;;;;;2.50;2.40;;;;;;;1.04;79.18;101184.25;1589110;88;22422;-90
2021/03/01 02:38:33;;;;;;;2.80;1.90;;;;;;;1.07;79.15;101191.90;1559957;89;21276;-92
2021/03/01 02:41:07;;;;;;;2.13;1.93;;;;;;;0.95;79.47;101194.91;1582003;89;21200;-90
2021/03/01 02:43:44;;;;;;;1.70;1.70;;;;;;;0.97;79.51;101196.95;1588855;86;21201;-91
2021/03/01 02:46:58;;;;;;;2.73;2.63;;;;;;;1.06;79.29;101192.86;1590921;85;21162;-93
2021/03/01 03:41:58;;;;;;;3.47;3.23;;;;;;;1.36;78.27;101265.59;1709255;79;21142;-94
2021/03/01 04:08:49;;;;;;;3.47;3.27;;;;;;;1.13;78.45;101279.44;1770458;78;21119;-92
2021/03/01 04:12:14;;;;;;;3.27;2.97;;;;;;;1.09;78.48;101288.47;1760480;78;21160;-93
2021/03/01 04:15:22;;;;;;;2.90;2.70;;;;;;;1.18;78.27;101291.79;1736792;78;21157;-94
2021/03/01 04:18:52;;;;;;;2.47;2.37;;;;;;;1.27;78.07;101296.91;1745260;79;21239;-93
2021/03/01 04:22:19;;;;;;;2.90;2.70;;;;;;;1.18;78.24;101297.05;1722556;79;21310;-93
2021/03/01 04:25:33;;;;;;;3.07;2.77;;;;;;;1.08;78.77;101304.70;1650816;85;21195;-94
2021/03/01 04:28:43;;;;;;;2.60;2.50;;;;;;;1.10;78.94;101305.92;1695925;83;21231;-94
2021/03/01 04:45:03;;;;;;;2.60;2.50;;;;;;;2.75;74.43;101310.09;1788391;77;24720;-89
2021/03/01 04:58:48;;;;;;;3.13;2.83;;;;;;;1.68;75.73;101337.41;1689602;80;22500;-91
2021/03/01 05:01:50;;;;;;;4.13;3.73;;;;;;;1.60;75.89;101348.94;1616793;84;21112;-94
2021/03/01 05:04:48;;;;;;;4.80;4.33;;;;;;;1.57;76.31;101354.39;1812855;77;23060;-91
2021/03/01 05:07:24;;;;;;;4.90;4.50;;;;;;;1.40;76.80;101356.86;1816717;79;21188;-91
2021/03/01 05:09:56;;;;;;;5.17;4.67;;;;;;;1.30;77.09;101366.28;1778679;79;21242;-94
2021/03/01 05:12:48;;;;;;;3.73;3.43;;;;;;;1.32;77.24;101377.08;1757305;79;21198;-90
2021/03/01 05:15:16;;;;;;;4.17;3.87;;;;;;;1.43;77.09;101384.70;1742177;81;21191;-90
2021/03/01 05:17:54;;;;;;;6.70;6.10;;;;;;;1.42;76.99;101386.97;1706106;84;21212;-90
2021/03/01 05:20:47;;;;;;;6.27;5.03;;;;;;;1.32;77.18;101391.53;1687954;84;21377;-91
2021/03/01 05:23:55;;;;;;;5.13;4.67;;;;;;;1.24;77.31;101391.17;1703663;83;21159;-92
2021/03/01 05:27:04;;;;;;;5.77;4.80;;;;;;;1.33;77.24;101392.36;1714420;83;21155;-89
2021/03/01 05:29:41;;;;;;;4.60;4.20;;;;;;;1.37;77.24;101397.77;1729696;80;21132;-89
2021/03/01 05:32:11;;;;;;;5.27;4.77;;;;;;;1.32;77.64;101403.83;1710065;83;21826;-89
2021/03/01 05:34:45;;;;;;;5.93;5.43;;;;;;;1.40;78.04;101405.94;1701343;82;21097;-91
2021/03/01 05:37:20;;;;;;;4.83;4.43;;;;;;;1.48;77.91;101412.83;1697796;83;21205;-90
2021/03/01 05:40:09;;;;;;;6.40;4.47;;;;;;;1.64;77.45;101417.88;1723587;81;21195;-91
2021/03/01 05:42:40;;;;;;;4.10;3.80;;;;;;;1.86;76.62;101425.15;1741138;81;21430;-89
2021/03/01 05:45:09;;;;;;;8.00;7.13;;;;;;;1.87;76.50;101428.99;1731000;82;21074;-90
2021/03/01 05:47:37;;;;;;;7.67;5.97;;;;;;;1.83;76.53;101432.78;1732128;82;21241;-87
2021/03/01 05:50:07;;;;;;;5.43;4.90;;;;;;;1.79;76.29;101431.77;1700962;83;21434;-87
2021/03/01 05:52:40;;;;;;;4.90;4.50;;;;;;;1.71;76.74;101439.73;1738827;81;21133;-92
2021/03/01 05:55:21;;;;;;;4.33;3.93;;;;;;;1.80;76.65;101447.92;1713792;81;21163;-92
2021/03/01 05:58:30;;;;;;;4.77;4.27;;;;;;;1.96;76.06;101461.72;1662700;83;21202;-91
2021/03/01 06:01:28;;;;;;;5.60;4.73;;;;;;;1.94;76.10;101464.89;1691669;83;21155;-90
2021/03/01 06:04:41;;;;;;;4.53;4.23;;;;;;;1.82;76.06;101469.69;1653138;82;21208;-92
2021/03/01 06:07:39;;;;;;;4.97;4.60;;;;;;;1.65;76.58;101480.86;1663149;84;21417;-90
2021/03/01 06:11:00;;;;;;;5.57;4.80;;;;;;;1.62;76.89;101484.16;1677880;84;21194;-91
2021/03/01 06:14:36;;;;;;;4.50;4.20;;;;;;;1.74;76.74;101492.55;1708461;83;21097;-92
2021/03/01 06:17:37;;;;;;;6.10;5.50;;;;;;;1.86;76.55;101485.62;1669087;84;21242;-91
2021/03/01 06:21:15;;;;;;;6.77;5.30;;;;;;;0.55;76.44;101296.81;1656434;83;21127;-94
2021/03/01 06:24:13;;;;;;;8.48;6.22;;;;;;;1.68;77.16;101505.63;1575010;86;21161;-89
2021/03/01 06:27:01;;;;;;;5.60;5.17;;;;;;;1.73;76.93;101504.00;1849722;76;22997;-87
2021/03/01 06:29:28;;;;;;;5.03;4.63;;;;;;;1.74;77.09;101518.84;1716737;81;21144;-88
2021/03/01 06:31:58;;;;;;;6.40;5.80;;;;;;;1.73;77.26;101510.12;1747341;81;21209;-87
2021/03/01 06:34:30;;;;;;;6.47;5.83;;;;;;;1.73;77.40;101514.06;1734188;81;21106;-88
2021/03/01 06:37:06;;;;;;;5.27;4.80;;;;;;;1.74;77.15;101522.30;1714225;82;21199;-87
2021/03/01 06:39:47;;;;;;;6.57;6.00;;;;;;;1.82;76.93;101523.58;1715689;81;21362;-86
2021/03/01 06:42:26;;;;;;;6.40;4.63;;;;;;;1.86;76.43;101527.69;1726178;81;21211;-90
2021/03/01 06:45:04;;;;;;;5.17;4.30;;;;;;;1.74;76.79;101535.45;1755961;79;21035;-89
2021/03/01 06:47:55;;;;;;;5.37;4.87;;;;;;;1.64;77.11;101546.66;1729813;77;21150;-87
2021/03/01 06:50:51;;;;;;;5.20;4.80;;;;;;;1.64;77.28;101537.45;1740117;81;21780;-87
2021/03/01 06:53:21;;;;;;;4.10;3.80;;;;;;;1.80;77.09;101556.55;1706217;81;21193;-85
2021/03/01 06:56:14;;;;;;;4.20;3.90;;;;;;;1.79;77.12;101552.25;1686309;82;21121;-88
2021/03/01 06:58:49;;;;;;;6.05;5.47;;;;;;;1.78;77.33;101549.72;1710306;82;21156;-88
2021/03/01 07:02:02;;;;;;;4.63;4.23;;;;;;;1.75;77.50;101558.17;1709659;82;21123;-89
2021/03/01 07:04:34;;;;;;;4.40;4.00;;;;;;;1.83;77.16;101563.38;1702770;82;21301;-87
2021/03/01 07:07:04;;;;;;;3.97;3.67;;;;;;;1.91;76.76;101568.50;1705623;82;21163;-87
2021/03/01 07:09:57;;;;;;;3.27;3.07;;;;;;;1.92;76.66;101575.91;1719883;82;21274;-89
2021/03/01 07:12:49;;;;;;;3.57;3.37;;;;;;;1.88;76.77;101571.81;1707402;82;21742;-87
2021/03/01 07:15:26;;;;;;;5.13;4.73;;;;;;;1.84;76.94;101575.11;1720937;78;21167;-89
2021/03/01 07:18:17;;;;;;;5.43;4.60;;;;;;;1.81;77.21;101571.84;1690672;79;21153;-87
2021/03/01 07:21:14;;;;;;;8.93;5.20;;;;;;;1.96;77.11;101573.48;1693367;82;21247;-88
2021/03/01 07:24:25;;;;;;;4.00;3.80;;;;;;;2.09;76.21;101584.00;1689544;84;21119;-88
2021/03/01 07:27:04;;;;;;;4.23;3.93;;;;;;;1.99;76.00;101585.09;1664356;83;21211;-90
2021/03/01 07:29:37;;;;;;;4.10;3.67;;;;;;;1.87;76.34;101593.33;1638471;86;21198;-90
2021/03/01 07:32:37;;;;;;;5.73;4.13;;;;;;;1.91;76.57;101588.70;1611291;87;21150;-88
2021/03/01 07:35:10;;;;;;;4.07;3.77;;;;;;;1.90;76.11;101585.25;1650097;83;21050;-88
2021/03/01 07:37:43;;;;;;;4.53;4.13;;;;;;;1.82;76.65;101586.68;1593558;89;21241;-89
2021/03/01 07:40:51;;;;;;;4.90;4.50;;;;;;;1.78;76.73;101582.09;1614392;88;21186;-87
2021/03/01 07:43:57;;;;;;;7.03;5.47;;;;;;;1.94;76.62;101586.72;1591413;87;21334;-90
2021/03/01 07:47:04;;;;;;;5.57;5.07;;;;;;;2.00;76.53;101593.36;1581623;89;21208;-91
2021/03/01 07:49:50;;;;;;;5.80;5.13;;;;;;;2.00;76.82;101590.73;1609933;87;21227;-88
2021/03/01 07:53:08;;;;;;;4.70;4.30;;;;;;;2.04;76.64;101595.32;1622650;88;21454;-88
2021/03/01 07:56:24;;;;;;;6.47;4.67;;;;;;;2.22;76.25;101590.59;1615397;85;21185;-88
2021/03/01 07:59:23;;;;;;;7.17;5.10;;;;;;;2.30;75.74;101599.67;1616612;87;21499;-89
2021/03/01 08:02:33;;;;;;;9.97;6.07;;;;;;;2.25;76.12;101601.76;1674512;83;21057;-88
2021/03/01 08:05:52;;;;;;;9.10;4.60;;;;;;;2.24;75.66;101604.04;1692338;81;21120;-86
2021/03/01 08:09:05;;;;;;;6.70;5.00;;;;;;;2.39;75.35;101611.34;1700800;80;21170;-89
2021/03/01 08:12:38;;;;;;;5.53;5.03;;;;;;;2.36;74.91;101619.95;1694256;82;21348;-87
2021/03/01 08:15:29;;;;;;;6.07;4.23;;;;;;;2.25;75.15;101619.34;1675288;81;21161;-88
2021/03/01 08:18:59;;;;;;;8.60;6.90;;;;;;;1.80;75.43;101558.34;1695307;82;21391;-87
2021/03/01 08:22:10;;;;;;;11.13;8.70;;;;;;;2.22;75.26;101631.38;1663565;82;21187;-90
2021/03/01 08:25:55;;;;;;;7.10;5.70;;;;;;;2.32;75.10;101628.52;1665382;83;21104;-89
2021/03/01 19:44:02;;;;;;;15.70;12.97;;;;;;;3.09;70.45;101784.79;1683280;81;21218;-92
2021/03/01 19:47:04;;;;;;;16.13;13.00;;;;;;;3.19;70.24;101780.21;1571562;87;21252;-88
2021/03/01 19:49:51;;;;;;;14.77;12.23;;;;;;;3.34;70.00;101786.23;1608572;86;21230;-94
2021/03/01 19:52:46;;;;;;;14.20;12.20;;;;;;;3.30;70.08;101785.11;1607131;86;21200;-90
2021/03/01 19:55:57;;;;;;;15.33;13.37;;;;;;;3.28;70.29;101773.83;1663246;78;26934;-89
2021/03/01 19:58:44;;;;;;;14.98;13.48;;;;;;;3.23;70.32;101773.30;1562429;86;21283;-89
2021/03/01 21:25:49;;;;;;;8.10;7.00;;;;;;;3.04;69.66;101699.11;1709291;81;21174;-91
2021/03/01 21:29:21;;;;;;;;;;;;;;;;;;;;;
2021/03/01 21:36:00;;;;;;;9.37;7.37;;;;;;;2.79;68.87;101629.70;1595689;87;21293;-91
2021/03/01 22:12:09;;;;;;;8.57;7.03;;;;;;;3.17;68.11;101674.08;1628271;84;21149;31
2021/03/01 22:14:45;;;;;;;7.30;6.43;;;;;;;3.06;68.04;101661.65;1565803;89;21256;-93
2021/03/01 22:17:56;;;;;;;8.33;6.83;;;;;;;3.10;68.10;101676.28;1535295;90;21297;-90
2021/03/01 22:38:07;;;;;;;5.67;5.17;;;;;;;3.08;67.81;101674.23;1650209;85;21169;-89
2021/03/01 22:55:25;;;;;;;5.37;4.97;;;;;;;3.19;67.53;101666.42;1657970;83;21149;-93
2021/03/01 22:59:06;;;;;;;;;;;;;;;;;;;;;
2021/03/01 23:12:22;;;;;;;4.97;4.57;;;;;;;3.06;67.56;101649.80;1574332;86;21209;-95
2021/03/01 23:15:36;;;;;;;5.40;4.13;;;;;;;3.16;67.25;101643.40;1550208;91;21339;-95
2021/03/01 23:25:17;;;;;;;4.50;4.10;;;;;;;3.16;67.27;101628.42;1481574;90;22357;-92
2021/03/01 23:28:45;;;;;;;4.33;3.92;;;;;;;3.16;67.35;101620.52;1466387;94;21224;-95
2021/03/01 23:48:32;;;;;;;4.33;3.93;;;;;;;3.29;66.75;101592.83;1517200;92;21663;-90
2021/03/01 23:51:21;;;;;;;4.53;3.87;;;;;;;3.25;67.11;101589.56;1776964;79;22879;-92
2021/03/01 23:54:13;;;;;;;5.20;4.10;;;;;;;3.19;67.25;101586.55;1741268;78;21307;-91
2021/03/01 23:56:48;;;;;;;5.67;4.43;;;;;;;3.15;67.37;101587.72;1635713;87;22106;-92
2021/03/01 23:59:37;;;;;;;3.30;3.00;;;;;;;3.14;67.40;101582.07;1643303;86;21207;-92
